Time;durP1;ratioP1;P1;durP2;ratioP2;P2;SDS_P1;SDS_P2;PMS_P1;PMS_P2;Temp;Humidity;BMP_temperature;BMP_pressure;BME280_temperature;BME280_humidity;BME280_pressure;Samples;Min_cycle;Max_cycle;Signal;HPM_P1;HPM_P2
2022/10/05 00:00:42;;;;;;;5.55;5.15;;;;;;;10.02;100.00;101424.41;5966295;23;20012;-70
2022/10/05 00:03:10;;;;;;;5.90;5.40;;;;;;;9.81;100.00;101384.97;5972884;23;20027;-69
2022/10/05 00:05:37;;;;;;;6.28;5.85;;;;;;;10.00;100.00;101419.19;5977855;23;20004;-70
2022/10/05 00:08:13;;;;;;;6.35;5.85;;;;;;;9.96;100.00;101417.59;6002501;23;20035;-72
2022/10/05 00:10:41;;;;;;;6.10;5.70;;;;;;;9.93;100.00;101405.47;5977943;23;20019;-70
2022/10/05 00:13:12;;;;;;;6.53;6.00;;;;;;;9.89;100.00;101400.41;5996347;23;20047;-70
2022/10/05 00:15:39;;;;;;;5.70;5.32;;;;;;;9.90;100.00;101405.63;5991603;23;20027;-70
2022/10/05 00:18:20;;;;;;;4.95;4.65;;;;;;;9.92;100.00;101397.66;6002894;23;20021;-70
2022/10/05 00:20:47;;;;;;;5.95;5.53;;;;;;;9.87;100.00;101397.00;5975390;23;20027;-70
2022/10/05 00:23:20;;;;;;;5.65;5.35;;;;;;;9.90;100.00;101400.38;5958395;23;20024;-70
2022/10/05 00:25:46;;;;;;;;;;;;;;;9.90;100.00;101396.88;5975339;23;20027;-70
2022/10/05 00:28:21;;;;;;;6.18;5.68;;;;;;;9.65;100.00;101348.00;5971439;23;20500;-70
2022/10/05 00:30:48;;;;;;;6.20;5.85;;;;;;;9.70;100.00;101351.31;6001917;23;20019;-70
2022/10/05 00:33:14;;;;;;;6.72;6.00;;;;;;;9.99;100.00;101394.75;5976318;23;20076;-70
2022/10/05 00:35:41;;;;;;;6.82;5.57;;;;;;;10.01;100.00;101392.09;6006586;23;20068;-70
2022/10/05 00:38:07;;;;;;;6.15;5.70;;;;;;;9.75;100.00;101333.63;6003995;23;20027;-70
2022/10/05 00:40:55;;;;;;;7.03;6.35;;;;;;;10.10;100.00;101383.88;5994690;23;20077;-70
2022/10/05 00:43:40;;;;;;;6.88;6.38;;;;;;;10.12;100.00;101381.16;5993754;23;20026;-70
2022/10/05 00:46:19;;;;;;;5.40;5.07;;;;;;;9.69;100.00;101304.19;5996810;23;20481;-70
2022/10/05 00:49:09;;;;;;;6.32;5.80;;;;;;;10.16;100.00;101375.75;5995812;23;20102;-69
2022/10/05 00:51:37;;;;;;;7.32;6.40;;;;;;;9.66;100.00;101297.31;5993322;23;20024;-70
2022/10/05 00:54:40;;;;;;;7.13;6.28;;;;;;;10.19;100.00;101382.63;5973230;23;20450;-70
2022/10/05 00:57:15;;;;;;;6.82;6.32;;;;;;;10.16;100.00;101380.13;5994230;23;20023;-70
2022/10/05 01:00:03;;;;;;;6.93;6.32;;;;;;;10.13;100.00;101381.09;5966423;23;20040;-71
2022/10/05 01:02:45;;;;;;;6.90;6.30;;;;;;;10.14;100.00;101380.22;5995958;23;20395;-71
2022/10/05 01:05:40;;;;;;;7.35;5.90;;;;;;;10.12;100.00;101379.41;5974120;23;20376;-70
2022/10/05 01:08:35;;;;;;;7.43;6.80;;;;;;;10.08;100.00;101379.56;6002942;23;20039;-69
2022/10/05 01:11:56;;;;;;;7.32;6.63;;;;;;;10.05;100.00;101382.34;5973315;23;20520;-69
2022/10/05 01:14:46;;;;;;;9.70;7.03;;;;;;;10.03;100.00;101381.53;5990412;23;20037;-69
2022/10/05 01:17:47;;;;;;;8.88;6.95;;;;;;;10.02;100.00;101382.44;5990773;23;20016;-70
2022/10/05 01:20:43;;;;;;;7.20;6.32;;;;;;;9.98;100.00;101385.19;5962575;23;20092;-70
2022/10/05 01:23:46;;;;;;;6.47;5.38;;;;;;;9.98;100.00;101373.81;5972423;23;20083;-70
2022/10/05 01:26:26;;;;;;;7.55;6.85;;;;;;;9.96;100.00;101373.03;5979923;23;20074;-70
2022/10/05 01:29:20;;;;;;;6.43;5.93;;;;;;;9.94;100.00;101369.63;6001846;23;20332;-69
2022/10/05 01:32:25;;;;;;;5.40;5.10;;;;;;;9.95;100.00;101373.97;5829602;24;20025;-69
2022/10/05 01:35:04;;;;;;;6.85;6.25;;;;;;;9.90;100.00;101368.03;5947833;24;20519;-69
2022/10/05 01:37:50;;;;;;;6.45;5.95;;;;;;;9.90;100.00;101371.53;5997642;23;20031;-69
2022/10/05 01:40:33;;;;;;;7.38;6.63;;;;;;;9.91;100.00;101362.75;5983838;23;20039;-70
2022/10/05 01:43:38;;;;;;;6.72;5.95;;;;;;;9.90;100.00;101352.31;5981978;23;20084;-70
2022/10/05 01:46:32;;;;;;;6.78;6.28;;;;;;;9.89;100.00;101346.22;6003564;23;20031;-71
2022/10/05 01:49:31;;;;;;;6.65;5.88;;;;;;;9.89;100.00;101354.06;5983610;23;20004;-71
2022/10/05 01:52:31;;;;;;;6.30;5.90;;;;;;;9.88;100.00;101349.75;5963978;23;20032;-71
2022/10/05 01:55:39;;;;;;;7.03;6.38;;;;;;;9.86;100.00;101346.34;5887223;23;20039;-71
2022/10/05 01:58:38;;;;;;;6.57;6.07;;;;;;;9.84;100.00;101337.66;6000984;23;20082;-69
2022/10/05 02:01:41;;;;;;;8.45;5.88;;;;;;;9.83;100.00;101337.75;5915397;24;20051;-69
2022/10/05 02:04:47;;;;;;;6.40;5.88;;;;;;;9.78;100.00;101340.50;5977853;23;20403;-69
2022/10/05 02:07:47;;;;;;;9.80;6.30;;;;;;;9.78;100.00;101335.28;5981281;23;20053;-69
2022/10/05 02:10:36;;;;;;;6.85;6.35;;;;;;;8.73;100.00;101163.75;6003466;23;20034;-68
2022/10/05 02:13:24;;;;;;;7.05;6.45;;;;;;;9.29;100.00;101266.41;6007854;23;20019;-70
2022/10/05 02:16:01;;;;;;;7.30;6.68;;;;;;;9.42;100.00;101290.38;5984311;23;20031;-69
2022/10/05 02:18:33;;;;;;;9.00;6.50;;;;;;;9.69;100.00;101331.25;5976532;23;20651;-69
2022/10/05 02:21:01;;;;;;;;;;;;;;;9.73;100.00;101321.50;6009103;23;20026;-70
2022/10/05 02:23:46;;;;;;;6.17;5.70;;;;;;;9.74;100.00;101334.56;5990715;23;19906;-69
2022/10/05 02:26:21;;;;;;;7.63;6.70;;;;;;;8.70;100.00;101156.03;5988156;23;20154;-70
2022/10/05 02:29:10;;;;;;;6.07;5.60;;;;;;;9.51;100.00;101290.88;5997270;23;20049;-71
2022/10/05 02:31:42;;;;;;;6.90;5.57;;;;;;;9.71;100.00;101321.56;5974327;23;20019;-70
2022/10/05 02:34:21;;;;;;;6.55;5.90;;;;;;;9.68;100.00;101332.19;5983156;23;20008;-70
2022/10/05 02:37:24;;;;;;;6.45;5.85;;;;;;;9.68;100.00;101324.31;5969618;23;20003;-71
2022/10/05 02:40:37;;;;;;;6.60;6.07;;;;;;;9.65;100.00;101318.34;5947543;23;20090;-70
2022/10/05 02:44:16;;;;;;;6.22;5.57;;;;;;;9.69;100.00;101322.53;5968955;23;20132;-71
2022/10/05 02:47:02;;;;;;;5.75;5.35;;;;;;;9.69;100.00;101318.16;5919515;24;20020;-71
2022/10/05 02:49:53;;;;;;;6.13;5.63;;;;;;;9.71;100.00;101316.31;5969985;23;20074;-69
2022/10/05 02:52:40;;;;;;;6.00;5.57;;;;;;;9.76;100.00;101311.75;5922740;23;20040;-69
2022/10/05 02:55:14;;;;;;;6.78;6.30;;;;;;;9.59;100.00;101269.63;5972919;23;20027;-71
2022/10/05 02:58:13;;;;;;;6.75;6.15;;;;;;;9.66;100.00;101251.88;6000590;23;20038;-71
2022/10/05 03:01:14;;;;;;;;;;;;;;;;;;;;;
2022/10/05 03:04:30;;;;;;;7.95;7.15;;;;;;;10.14;100.00;101298.03;5956962;24;20020;-71
2022/10/05 03:07:11;;;;;;;6.93;6.32;;;;;;;9.70;100.00;101225.50;5966722;23;20026;-71
2022/10/05 03:09:54;;;;;;;8.82;6.47;;;;;;;9.64;100.00;101209.16;5981593;23;20712;-70
2022/10/05 03:12:37;;;;;;;8.57;6.68;;;;;;;10.16;100.00;101290.94;5963644;23;20050;-71
2022/10/05 03:15:17;;;;;;;6.43;5.90;;;;;;;10.17;100.00;101287.44;5972003;23;20019;-69
2022/10/05 03:18:01;;;;;;;7.88;7.18;;;;;;;9.94;100.00;101244.66;5987038;23;20030;-69
2022/10/05 03:21:10;;;;;;;7.40;6.90;;;;;;;10.22;100.00;101285.44;5989264;23;20046;-69
2022/10/05 03:24:15;;;;;;;6.22;5.82;;;;;;;10.23;100.00;101292.41;6004933;23;20023;-68
2022/10/05 03:26:52;;;;;;;6.82;5.50;;;;;;;10.23;100.00;101281.06;6001463;23;20033;-69
2022/10/05 03:29:40;;;;;;;6.03;5.47;;;;;;;10.24;100.00;101282.78;5996688;23;20019;-69
2022/10/05 03:32:22;;;;;;;6.63;6.10;;;;;;;10.24;100.00;101274.91;5975757;23;20020;-69
2022/10/05 03:35:12;;;;;;;6.40;5.90;;;;;;;10.22;100.00;101277.56;5978931;23;20027;-68
2022/10/05 03:38:19;;;;;;;6.13;5.50;;;;;;;10.21;100.00;101281.13;5970239;24;20035;-70
2022/10/05 03:40:48;;;;;;;7.03;6.32;;;;;;;10.21;100.00;101275.88;5947070;24;20041;-70
2022/10/05 03:43:44;;;;;;;7.23;6.53;;;;;;;10.25;100.00;101274.84;5971881;24;20108;-69
2022/10/05 03:47:00;;;;;;;7.38;6.63;;;;;;;10.27;100.00;101269.53;5975823;23;20492;-69
2022/10/05 03:49:45;;;;;;;6.43;5.82;;;;;;;10.25;100.00;101264.34;5970646;23;20043;-70
2022/10/05 03:52:22;;;;;;;6.22;5.70;;;;;;;9.95;100.00;101214.88;5975360;23;20734;-70
2022/10/05 03:55:29;;;;;;;6.78;6.28;;;;;;;9.13;100.00;101091.53;5932699;23;20082;-70
2022/10/05 03:58:36;;;;;;;7.03;6.43;;;;;;;9.64;100.00;101188.19;5951040;24;20388;-70
2022/10/05 04:01:15;;;;;;;6.88;6.15;;;;;;;10.03;100.00;101255.66;5955411;24;20087;-69
2022/10/05 04:04:08;;;;;;;10.15;7.50;;;;;;;9.94;100.00;101249.88;5976792;23;20054;-69
2022/10/05 04:06:46;;;;;;;;;;;;;;;9.94;100.00;101249.88;5945589;24;20357;-69
2022/10/05 04:09:23;;;;;;;7.22;6.30;;;;;;;9.94;100.00;101239.41;5935123;24;20567;-68
2022/10/05 04:12:33;;;;;;;;;;;;;;;10.04;100.00;101239.00;5944494;23;20028;-69
2022/10/05 04:15:31;;;;;;;6.50;5.90;;;;;;;10.14;100.00;101248.19;5832616;24;19945;-69
2022/10/05 04:18:05;;;;;;;9.85;6.07;;;;;;;9.51;100.00;101136.28;5956318;24;20036;-69
2022/10/05 04:20:53;;;;;;;5.57;5.07;;;;;;;9.98;100.00;101198.16;5959905;23;20473;-70
2022/10/05 04:23:50;;;;;;;5.82;5.28;;;;;;;9.96;100.00;101179.00;5987293;23;20019;-70
2022/10/05 04:26:39;;;;;;;5.82;5.43;;;;;;;10.37;100.00;101242.03;5921851;24;20035;-70
2022/10/05 04:29:37;;;;;;;6.40;5.93;;;;;;;10.42;100.00;101239.19;5975966;23;20004;-72
2022/10/05 04:32:35;;;;;;;6.97;6.28;;;;;;;10.48;100.00;101245.03;5950564;24;20028;-71
2022/10/05 04:35:44;;;;;;;6.63;6.13;;;;;;;10.55;100.00;101240.38;5947020;24;20020;-69
2022/10/05 04:38:41;;;;;;;6.32;5.78;;;;;;;10.57;100.00;101234.13;5957302;23;20026;-70
2022/10/05 04:41:49;;;;;;;6.22;5.78;;;;;;;10.63;100.00;101242.69;5927945;23;20049;-69
2022/10/05 04:44:38;;;;;;;6.07;5.68;;;;;;;10.65;100.00;101243.47;5949995;24;20082;-69
2022/10/05 04:47:24;;;;;;;6.90;6.30;;;;;;;10.63;100.00;101242.69;5979690;23;20027;-69
2022/10/05 04:50:24;;;;;;;7.45;6.82;;;;;;;10.61;100.00;101234.88;5947030;23;20015;-68
2022/10/05 04:53:08;;;;;;;6.93;6.32;;;;;;;10.58;100.00;101246.34;5974841;23;20031;-68
2022/10/05 04:56:11;;;;;;;8.38;6.18;;;;;;;10.55;100.00;101240.38;5977455;23;20032;-70
2022/10/05 04:58:46;;;;;;;11.02;5.97;;;;;;;10.54;100.00;101242.16;5958570;24;20035;-69
2022/10/05 05:01:34;;;;;;;6.53;5.93;;;;;;;10.55;100.00;101251.72;5943883;24;20640;-70
2022/10/05 05:04:26;;;;;;;7.25;6.63;;;;;;;10.56;100.00;101245.56;5971003;23;20000;-71
2022/10/05 05:07:22;;;;;;;6.65;6.10;;;;;;;10.58;100.00;101245.47;5976585;23;20023;-70
2022/10/05 05:10:19;;;;;;;7.32;5.32;;;;;;;10.61;100.00;101248.00;5936217;24;20683;-70
2022/10/05 05:13:33;;;;;;;8.43;5.80;;;;;;;10.62;100.00;101243.59;5976236;23;20039;-70
2022/10/05 05:16:19;;;;;;;6.15;5.75;;;;;;;10.60;100.00;101242.81;5958226;24;20023;-70
2022/10/05 05:19:25;;;;;;;5.45;5.13;;;;;;;10.61;100.00;101240.13;5972469;23;20051;-69
2022/10/05 05:22:16;;;;;;;6.80;6.25;;;;;;;10.59;100.00;101241.97;5950788;23;20028;-69
2022/10/05 05:25:41;;;;;;;5.72;5.32;;;;;;;10.62;100.00;101247.06;5979651;24;20007;-69
2022/10/05 05:28:28;;;;;;;6.22;5.82;;;;;;;10.62;100.00;101247.06;5958332;24;20028;-70
2022/10/05 05:31:26;;;;;;;5.82;5.35;;;;;;;10.64;100.00;101250.47;5955697;23;20021;-69
2022/10/05 05:34:41;;;;;;;6.43;5.93;;;;;;;10.66;100.00;101246.00;5969384;23;20657;-70
2022/10/05 05:37:45;;;;;;;6.55;5.95;;;;;;;10.68;100.00;101246.78;5936262;23;20712;-71
2022/10/05 05:40:24;;;;;;;8.07;6.60;;;;;;;10.71;100.00;101240.56;5945457;24;20024;-70
2022/10/05 05:43:24;;;;;;;5.95;5.55;;;;;;;10.75;100.00;101242.97;5968789;23;20030;-69
2022/10/05 05:46:39;;;;;;;6.38;5.78;;;;;;;10.79;100.00;101243.72;5962431;23;20032;-67
2022/10/05 05:49:37;;;;;;;5.78;5.38;;;;;;;10.82;100.00;101243.56;5950693;24;20020;-67
2022/10/05 05:52:26;;;;;;;6.75;6.25;;;;;;;10.87;100.00;101246.00;5971163;23;20035;-66
2022/10/05 05:55:07;;;;;;;6.03;5.53;;;;;;;10.67;100.00;101215.38;5963832;23;20086;-67
2022/10/05 05:58:09;;;;;;;6.70;6.20;;;;;;;10.96;100.00;101245.56;5984442;23;20090;-67
2022/10/05 06:00:48;;;;;;;7.07;6.43;;;;;;;10.78;100.00;101206.09;5960940;23;20039;-66
2022/10/05 06:03:24;;;;;;;5.50;5.20;;;;;;;10.63;100.00;101171.81;5993672;23;20091;-67
2022/10/05 06:05:59;;;;;;;6.20;5.75;;;;;;;11.11;100.00;101249.28;5970109;23;20088;-66
2022/10/05 06:08:49;;;;;;;5.90;5.40;;;;;;;10.98;100.00;101217.47;5997299;23;20024;-66
2022/10/05 06:11:42;;;;;;;6.68;6.10;;;;;;;11.21;100.00;101247.94;5967681;24;20090;-67
2022/10/05 06:14:18;;;;;;;5.68;5.28;;;;;;;11.02;100.00;101210.28;5985825;23;20027;-67
2022/10/05 06:16:54;;;;;;;9.98;6.05;;;;;;;11.35;100.00;101253.41;5961338;23;20094;-66
2022/10/05 06:19:23;;;;;;;6.70;6.20;;;;;;;11.41;100.00;101257.53;6005202;23;20109;-66
2022/10/05 06:22:10;;;;;;;9.68;6.95;;;;;;;11.48;100.00;101247.56;5965801;23;20031;-69
2022/10/05 06:24:55;;;;;;;6.22;5.72;;;;;;;11.55;100.00;101251.63;6004137;23;20011;-69
2022/10/05 06:27:58;;;;;;;6.57;6.07;;;;;;;11.48;100.00;101247.56;5972016;23;20023;-68
2022/10/05 06:30:35;;;;;;;7.07;6.53;;;;;;;11.67;100.00;101252.81;5968597;23;20774;-69
2022/10/05 06:33:20;;;;;;;7.68;6.97;;;;;;;11.72;100.00;101248.19;5966645;23;20024;-69
2022/10/05 06:36:06;;;;;;;6.95;6.47;;;;;;;11.78;100.00;101250.50;5971572;23;20023;-70
2022/10/05 06:38:51;;;;;;;7.28;6.55;;;;;;;10.87;100.00;101085.81;5975252;23;20023;-66
2022/10/05 06:41:46;;;;;;;7.35;6.45;;;;;;;11.90;100.00;101246.47;5981277;23;20011;-70
2022/10/05 06:44:24;;;;;;;7.32;6.72;;;;;;;11.97;100.00;101250.50;5960686;23;20758;-70
2022/10/05 06:47:21;;;;;;;6.45;5.95;;;;;;;11.98;100.00;101250.41;5989644;23;20671;-70
2022/10/05 06:50:26;;;;;;;7.35;6.70;;;;;;;11.77;100.00;101206.75;5947848;24;20031;-69
2022/10/05 06:53:18;;;;;;;6.38;5.70;;;;;;;11.82;100.00;101210.00;5988117;23;20031;-67
2022/10/05 06:56:22;;;;;;;9.40;6.77;;;;;;;12.17;100.00;101247.75;5968305;23;20718;-67
2022/10/05 06:59:03;;;;;;;7.22;6.63;;;;;;;11.94;100.00;101206.78;5936746;24;20314;-67
2022/10/05 07:01:53;;;;;;;6.35;5.95;;;;;;;12.29;100.00;101248.91;5966178;23;20344;-68
2022/10/05 07:04:41;;;;;;;6.75;6.15;;;;;;;12.35;100.00;101243.31;5991415;23;20071;-68
2022/10/05 07:07:08;;;;;;;6.50;6.00;;;;;;;12.40;100.00;101244.88;5967503;23;20032;-68
2022/10/05 07:09:55;;;;;;;6.93;6.32;;;;;;;12.44;100.00;101249.91;5989346;23;20101;-68
2022/10/05 07:12:45;;;;;;;7.47;6.75;;;;;;;12.52;100.00;101247.72;5966517;23;20020;-68
2022/10/05 07:15:39;;;;;;;7.40;6.72;;;;;;;12.58;100.00;101242.13;5937719;24;20067;-67
2022/10/05 07:18:26;;;;;;;6.47;6.07;;;;;;;12.69;100.00;101245.97;5960139;23;20045;-66
2022/10/05 07:21:21;;;;;;;7.45;6.75;;;;;;;12.71;100.00;101242.38;5991518;23;20777;-67
2022/10/05 07:23:52;;;;;;;6.90;6.30;;;;;;;12.77;100.00;101235.94;5956688;24;20043;-67
2022/10/05 07:26:41;;;;;;;6.35;5.88;;;;;;;12.84;100.00;101236.44;5971806;23;20047;-69
2022/10/05 07:29:17;;;;;;;6.25;5.85;;;;;;;12.88;100.00;101244.09;5948120;23;20035;-67
2022/10/05 07:32:05;;;;;;;7.15;5.97;;;;;;;12.90;100.00;101244.03;5935207;24;20036;-67
2022/10/05 07:35:08;;;;;;;5.95;5.55;;;;;;;12.94;100.00;101249.03;5969840;23;20164;-68
2022/10/05 07:37:53;;;;;;;6.03;5.60;;;;;;;12.80;100.00;101216.47;5943719;24;20023;-68
2022/10/05 07:40:39;;;;;;;6.50;6.07;;;;;;;13.01;100.00;101249.56;5967682;23;20577;-67
2022/10/05 07:43:20;;;;;;;5.90;5.50;;;;;;;13.04;100.00;101245.91;5968530;23;20598;-67
2022/10/05 07:45:53;;;;;;;7.30;6.47;;;;;;;13.06;100.00;101250.16;5939162;24;20024;-69
2022/10/05 07:48:47;;;;;;;6.93;6.35;;;;;;;13.13;100.00;101250.72;5967203;23;20030;-70
2022/10/05 07:51:27;;;;;;;6.03;5.63;;;;;;;13.17;100.00;101245.19;5962117;23;20643;-69
2022/10/05 07:54:11;;;;;;;6.55;5.90;;;;;;;12.28;100.00;101098.97;5967253;23;20109;-69
2022/10/05 07:56:48;;;;;;;7.47;6.55;;;;;;;13.28;100.00;101256.91;5963222;23;20024;-69
2022/10/05 07:59:27;;;;;;;6.30;5.88;;;;;;;13.08;100.00;101215.84;5957340;23;20538;-70
2022/10/05 08:02:12;;;;;;;5.95;5.57;;;;;;;13.35;100.00;101247.78;5938855;24;20044;-68
2022/10/05 08:05:10;;;;;;;9.02;5.88;;;;;;;13.48;100.00;101251.41;5961157;23;20599;-69
2022/10/05 08:07:38;;;;;;;6.43;5.93;;;;;;;13.41;100.00;101212.28;5959560;23;20020;-69
2022/10/05 08:10:28;;;;;;;6.15;5.75;;;;;;;13.74;100.00;101249.13;5964262;23;20685;-69
2022/10/05 08:13:18;;;;;;;5.88;5.53;;;;;;;13.81;100.00;101234.66;5958328;23;20024;-68
2022/10/05 08:15:50;;;;;;;5.90;5.40;;;;;;;14.02;100.00;101242.25;5940270;24;20036;-68
2022/10/05 08:18:58;;;;;;;6.53;5.95;;;;;;;14.13;100.00;101243.34;5935511;24;20028;-69
2022/10/05 08:21:35;;;;;;;6.03;5.63;;;;;;;14.31;100.00;101222.94;5909551;24;20028;-69
2022/10/05 08:24:29;;;;;;;6.07;5.68;;;;;;;14.48;100.00;101240.41;5956745;24;20030;-70
2022/10/05 08:27:19;;;;;;;5.82;5.40;;;;;;;14.72;100.00;101242.53;5938141;24;20094;-69
2022/10/05 08:29:57;;;;;;;6.90;6.40;;;;;;;14.87;100.00;101235.44;5963157;23;20032;-70
2022/10/05 08:32:28;;;;;;;6.78;6.18;;;;;;;14.92;100.00;101214.88;5961843;23;20074;-70
2022/10/05 08:35:03;;;;;;;8.27;5.93;;;;;;;15.19;100.00;101233.44;5961893;23;20056;-70
2022/10/05 08:37:36;;;;;;;6.40;6.00;;;;;;;15.36;100.00;101238.53;5962247;24;20051;-69
2022/10/05 08:40:17;;;;;;;6.43;5.93;;;;;;;15.48;100.00;101238.69;5970227;23;20527;-69
2022/10/05 08:43:21;;;;;;;5.70;5.35;;;;;;;15.45;100.00;101204.50;5958372;23;20429;-70
2022/10/05 08:46:02;;;;;;;9.48;5.60;;;;;;;15.71;100.00;101231.91;5948990;23;20087;-69
2022/10/05 08:48:34;;;;;;;6.30;5.90;;;;;;;15.72;100.00;101236.25;5967313;24;20090;-73
2022/10/05 08:51:23;;;;;;;9.32;5.95;;;;;;;15.73;100.00;101232.69;5967758;23;20039;-72
2022/10/05 08:54:23;;;;;;;7.50;5.95;;;;;;;15.77;100.00;101230.69;5939936;24;20088;-72
2022/10/05 08:57:13;;;;;;;6.55;6.15;;;;;;;15.54;100.00;101186.22;5963458;24;20059;-72
2022/10/05 09:00:02;;;;;;;5.65;5.35;;;;;;;15.83;100.00;101228.47;5968963;24;20020;-72
2022/10/05 09:03:07;;;;;;;6.28;5.88;;;;;;;15.91;100.00;101231.47;5968201;23;20035;-72
2022/10/05 09:05:57;;;;;;;5.78;5.47;;;;;;;15.89;100.00;101227.22;5968404;23;20036;-71
2022/10/05 09:08:50;;;;;;;6.85;6.28;;;;;;;15.93;100.00;101226.06;5955892;24;20028;-71
2022/10/05 09:11:36;;;;;;;6.18;5.78;;;;;;;15.99;100.00;101227.47;5946192;23;20031;-71
2022/10/05 09:14:38;;;;;;;8.02;6.05;;;;;;;16.27;100.00;101229.94;5965829;23;20027;-72
2022/10/05 09:17:41;;;;;;;6.60;6.00;;;;;;;16.27;100.00;101219.34;5962085;23;20125;-71
2022/10/05 09:20:50;;;;;;;6.57;6.07;;;;;;;15.97;100.00;101179.06;5962424;23;20011;-72
2022/10/05 09:23:37;;;;;;;6.90;6.38;;;;;;;16.16;100.00;101195.44;5950543;23;20026;-72
2022/10/05 09:26:10;;;;;;;6.30;5.65;;;;;;;16.41;100.00;101218.41;5962817;23;20034;-72
2022/10/05 09:29:00;;;;;;;6.35;5.95;;;;;;;16.18;100.00;101167.03;5957713;24;20027;-71
2022/10/05 09:31:33;;;;;;;6.20;5.80;;;;;;;16.50;100.00;101212.50;5969790;23;20521;-71
2022/10/05 09:34:14;;;;;;;6.35;5.88;;;;;;;16.48;100.00;101221.53;5970939;23;20011;-72
2022/10/05 09:36:46;;;;;;;6.75;6.25;;;;;;;16.43;100.00;101216.50;5957663;23;20175;-72
2022/10/05 09:39:19;;;;;;;;;;;;;;;16.48;100.00;101221.53;5945310;23;20020;-71
2022/10/05 09:42:23;;;;;;;6.30;5.90;;;;;;;16.58;100.00;101216.41;5968231;24;19943;-72
2022/10/05 09:45:28;;;;;;;6.65;5.70;;;;;;;16.56;100.00;101216.53;5852402;24;20012;-71
2022/10/05 09:48:27;;;;;;;6.55;6.15;;;;;;;16.39;100.00;101171.81;5959374;23;20070;-71
2022/10/05 09:51:06;;;;;;;11.00;6.28;;;;;;;16.46;100.00;101160.69;5996479;23;20085;-71
2022/10/05 09:53:41;;;;;;;6.07;5.72;;;;;;;16.83;100.00;101210.28;5969072;23;20364;-71
2022/10/05 09:56:26;;;;;;;6.28;5.78;;;;;;;16.84;100.00;101211.97;5999893;23;20019;-70
2022/10/05 09:59:12;;;;;;;6.93;6.40;;;;;;;16.90;100.00;101214.22;5993377;23;20046;-71
2022/10/05 10:02:21;;;;;;;6.10;5.70;;;;;;;16.82;100.00;101192.66;5997785;23;20374;-70
2022/10/05 10:05:06;;;;;;;6.22;5.82;;;;;;;17.07;100.00;101203.22;5996321;23;20027;-72
2022/10/05 10:07:55;;;;;;;7.18;6.57;;;;;;;17.00;100.00;101178.13;6003866;23;20109;-71
2022/10/05 10:11:02;;;;;;;6.63;6.13;;;;;;;17.20;100.00;101202.34;5999962;23;20023;-71
2022/10/05 10:13:59;;;;;;;6.80;6.40;;;;;;;17.46;100.00;101203.97;5995598;23;20011;-70
2022/10/05 10:16:55;;;;;;;5.75;5.43;;;;;;;17.79;100.00;101210.41;5997456;23;20833;-70
2022/10/05 10:19:44;;;;;;;6.28;5.88;;;;;;;18.09;97.75;101207.28;6002847;23;20735;-71
2022/10/05 10:22:28;;;;;;;6.75;6.30;;;;;;;18.09;96.15;101201.97;6001306;23;20015;-71
2022/10/05 10:25:15;;;;;;;7.28;5.95;;;;;;;18.03;94.53;101197.13;6005958;23;20042;-71
2022/10/05 10:27:53;;;;;;;6.20;5.80;;;;;;;18.14;94.70;101180.34;5996653;23;20023;-71
2022/10/05 10:31:03;;;;;;;5.95;5.57;;;;;;;17.56;94.78;101143.13;5976291;23;20035;-71
2022/10/05 10:33:52;;;;;;;6.93;6.32;;;;;;;17.94;95.78;101201.31;5997800;23;20030;-71
2022/10/05 10:37:02;;;;;;;7.13;6.05;;;;;;;18.08;95.52;101194.97;5969150;23;20395;-71
2022/10/05 10:39:31;;;;;;;8.13;7.63;;;;;;;18.15;93.90;101198.00;5986965;23;20043;-71
2022/10/05 10:42:25;;;;;;;6.55;6.07;;;;;;;18.22;95.08;101185.97;5995200;23;20097;-71
2022/10/05 10:45:30;;;;;;;6.82;6.32;;;;;;;18.01;94.85;101134.47;5996987;23;20494;-71
2022/10/05 10:48:07;;;;;;;6.97;6.20;;;;;;;18.48;95.77;101191.91;5938383;23;20023;-71
2022/10/05 10:51:01;;;;;;;5.70;5.40;;;;;;;18.89;92.52;101197.63;5972746;23;20500;-71
2022/10/05 10:53:44;;;;;;;6.35;5.95;;;;;;;18.99;92.06;101153.38;6000041;23;20027;-71
2022/10/05 10:56:44;;;;;;;7.10;6.40;;;;;;;19.37;90.32;101181.34;5997354;23;20572;-71
2022/10/05 10:59:51;;;;;;;6.72;6.13;;;;;;;19.13;87.82;101118.50;5965519;23;20427;-71
2022/10/05 11:02:27;;;;;;;6.38;5.88;;;;;;;19.56;89.26;101131.91;5991800;23;20019;-71
2022/10/05 11:05:31;;;;;;;5.90;5.60;;;;;;;19.85;84.75;101151.66;5974655;23;20026;-71
2022/10/05 11:08:19;;;;;;;5.97;5.63;;;;;;;19.78;82.50;101150.47;5996114;23;20159;-71
2022/10/05 11:11:16;;;;;;;6.00;5.70;;;;;;;19.91;81.28;101147.63;5992359;23;20027;-71
2022/10/05 11:14:01;;;;;;;5.93;5.60;;;;;;;19.95;81.54;101142.88;5987713;23;20022;-71
2022/10/05 11:16:36;;;;;;;6.03;5.72;;;;;;;20.10;82.27;101130.91;5996860;23;20706;-71
2022/10/05 11:19:25;;;;;;;6.97;6.47;;;;;;;20.02;81.93;101126.22;5992000;23;20474;-71
2022/10/05 11:22:50;;;;;;;6.30;6.00;;;;;;;19.97;81.54;101107.16;5989166;23;20023;-71
2022/10/05 11:25:35;;;;;;;6.60;6.20;;;;;;;19.96;81.11;101125.91;5882838;24;20073;-71
2022/10/05 11:28:21;;;;;;;6.88;6.30;;;;;;;19.93;83.72;101125.19;5958229;24;20024;-71
2022/10/05 11:31:27;;;;;;;6.15;5.85;;;;;;;19.97;82.00;101122.28;5982102;23;20027;-72
2022/10/05 11:34:05;;;;;;;6.30;5.90;;;;;;;20.12;82.98;101112.97;5936962;24;20661;-72
2022/10/05 11:36:50;;;;;;;5.97;5.68;;;;;;;20.24;80.68;101106.56;5967673;23;20028;-72
2022/10/05 11:39:19;;;;;;;5.80;5.50;;;;;;;20.40;79.58;101099.91;5963776;23;20103;-72
2022/10/05 11:42:24;;;;;;;7.18;6.55;;;;;;;20.60;79.58;101095.53;5968069;23;20028;-70
2022/10/05 11:45:21;;;;;;;6.40;6.00;;;;;;;20.22;78.21;101031.25;5971938;23;20031;-71
2022/10/05 11:48:14;;;;;;;6.00;5.60;;;;;;;20.56;77.79;101078.91;5974167;23;20050;-71
2022/10/05 11:51:18;;;;;;;5.80;5.50;;;;;;;20.77;78.71;101068.22;5969392;23;20032;-71
2022/10/05 11:54:05;;;;;;;6.00;5.60;;;;;;;20.41;77.73;100973.66;5962950;23;20529;-70
2022/10/05 11:56:37;;;;;;;6.03;5.68;;;;;;;21.06;77.10;101052.22;5969189;23;20722;-71
2022/10/05 11:59:25;;;;;;;5.97;5.68;;;;;;;21.05;75.54;101050.56;5968195;23;20035;-72
2022/10/05 12:02:03;;;;;;;6.28;5.88;;;;;;;20.98;74.04;101005.88;5947660;23;20805;-71
2022/10/05 12:04:44;;;;;;;5.88;5.57;;;;;;;21.00;73.45;101020.75;5919203;24;20431;-72
2022/10/05 12:07:33;;;;;;;6.30;5.72;;;;;;;21.18;73.37;101039.59;5968181;23;20074;-71
2022/10/05 12:10:29;;;;;;;6.05;5.63;;;;;;;20.95;73.62;100996.34;5974022;23;20052;-72
2022/10/05 12:13:02;;;;;;;6.40;6.00;;;;;;;21.24;72.85;101024.84;5970284;23;20015;-71
2022/10/05 12:15:53;;;;;;;5.85;5.55;;;;;;;21.20;72.17;100975.38;5972601;23;20120;-71
2022/10/05 12:18:52;;;;;;;5.80;5.50;;;;;;;21.36;70.87;101022.88;5936920;24;20024;-70
2022/10/05 12:21:42;;;;;;;6.20;5.90;;;;;;;21.62;71.45;101018.63;5969295;23;20027;-70
2022/10/05 12:24:17;;;;;;;5.55;5.28;;;;;;;21.52;69.37;101012.47;5968242;23;20089;-70
2022/10/05 12:26:57;;;;;;;5.82;5.53;;;;;;;21.47;67.17;100977.34;5975075;23;20469;-71
2022/10/05 12:29:34;;;;;;;6.20;5.90;;;;;;;21.70;67.53;100989.34;5951605;24;20450;-71
2022/10/05 12:32:16;;;;;;;5.93;5.63;;;;;;;21.88;67.17;100989.44;5970591;23;20016;-70
2022/10/05 12:34:57;;;;;;;5.60;5.30;;;;;;;21.67;66.49;100948.75;5972388;24;20376;-70
2022/10/05 12:37:30;;;;;;;5.65;5.35;;;;;;;21.87;64.54;100984.22;5968508;24;20035;-71
2022/10/05 12:40:34;;;;;;;6.00;5.70;;;;;;;21.96;65.69;100974.50;5973732;23;20034;-70
2022/10/05 12:43:09;;;;;;;5.90;5.60;;;;;;;22.05;67.37;100974.47;5968780;23;20015;-70
2022/10/05 12:45:57;;;;;;;5.80;5.50;;;;;;;22.07;67.06;100972.50;5972342;23;20423;-70
2022/10/05 12:48:41;;;;;;;5.95;5.65;;;;;;;22.02;64.09;100944.53;5974707;23;20047;-70
2022/10/05 12:51:18;;;;;;;5.80;5.50;;;;;;;22.18;63.88;100968.75;5950442;24;20052;-70
2022/10/05 12:54:23;;;;;;;6.00;5.60;;;;;;;22.15;63.61;100969.09;5969026;23;20122;-70
2022/10/05 12:56:55;;;;;;;5.78;5.47;;;;;;;22.21;66.47;100970.28;5975141;23;20046;-71
2022/10/05 12:59:37;;;;;;;5.70;5.40;;;;;;;22.24;67.15;100968.19;5963831;23;20050;-71